createdAt,value
2022-11-17T00:00:47.885Z,20
2022-11-17T00:04:38.588Z,23
2022-11-17T00:08:29.071Z,28
2022-11-17T00:10:57.456Z,27
2022-11-17T00:13:25.642Z,34
2022-11-17T00:15:53.882Z,31
2022-11-17T00:18:22.178Z,30
2022-11-17T00:20:50.400Z,29
2022-11-17T00:24:32.806Z,37
2022-11-17T00:27:01.073Z,34
2022-11-17T00:30:43.999Z,35
2022-11-17T00:34:34.058Z,36
2022-11-17T00:37:02.342Z,36
2022-11-17T00:40:44.750Z,36
2022-11-17T00:44:27.128Z,36
2022-11-17T00:46:55.414Z,37
2022-11-17T00:49:23.718Z,36
2022-11-17T00:51:51.938Z,38
2022-11-17T00:56:40.281Z,40
2022-11-17T01:00:22.685Z,35
2022-11-17T01:02:51.034Z,39
2022-11-17T01:06:41.548Z,40
2022-11-17T01:10:23.946Z,41
2022-11-17T01:13:00.392Z,30
2022-11-17T01:15:28.682Z,39
2022-11-17T01:17:56.918Z,38
2022-11-17T01:20:25.299Z,36
2022-11-17T01:23:01.754Z,33
2022-11-17T01:25:38.081Z,39
2022-11-17T01:29:20.485Z,38
2022-11-17T01:31:48.817Z,42
2022-11-17T01:35:31.197Z,40
2022-11-17T01:37:59.436Z,39
2022-11-17T01:40:27.725Z,40
2022-11-17T01:42:55.991Z,37
2022-11-17T01:45:24.221Z,34
2022-11-17T01:47:52.518Z,36
2022-11-17T01:50:20.782Z,35
2022-11-17T01:52:57.262Z,34
2022-11-17T01:55:25.488Z,31
2022-11-17T01:57:45.577Z,35
2022-11-17T02:01:28.027Z,35
2022-11-17T02:03:56.278Z,34
2022-11-17T02:06:24.519Z,40
2022-11-17T02:11:21.042Z,31
2022-11-17T02:43:44.901Z,28
2022-11-17T02:47:27.296Z,23
2022-11-17T02:49:55.554Z,13
2022-11-17T02:52:23.830Z,18
2022-11-17T02:54:52.095Z,19
2022-11-17T02:58:26.280Z,15
2022-11-17T03:00:54.580Z,12
2022-11-17T03:03:22.826Z,13
2022-11-17T03:05:51.080Z,14
2022-11-17T03:09:33.560Z,12
2022-11-17T03:12:01.847Z,18
2022-11-17T03:14:38.225Z,12
2022-11-17T03:19:34.736Z,14
2022-11-17T03:22:11.225Z,13
2022-11-17T03:24:39.478Z,11
2022-11-17T03:29:35.986Z,14
2022-11-17T03:32:04.266Z,15
2022-11-17T03:34:32.534Z,15
2022-11-17T03:37:00.809Z,14
2022-11-17T03:39:29.067Z,16
2022-11-17T03:41:57.336Z,13
2022-11-17T03:44:25.607Z,14
2022-11-17T03:46:53.870Z,14
2022-11-17T03:49:30.305Z,17
2022-11-17T03:51:58.602Z,15
2022-11-17T03:54:35.064Z,15
2022-11-17T03:57:03.324Z,12
2022-11-17T03:59:23.391Z,14
2022-11-17T04:01:51.732Z,15
2022-11-17T04:05:34.083Z,19
2022-11-17T04:08:02.327Z,15
2022-11-17T04:10:30.578Z,17
2022-11-17T04:12:58.841Z,17
2022-11-17T04:15:27.128Z,19
2022-11-17T04:20:23.652Z,14
2022-11-17T04:22:51.956Z,13
2022-11-17T04:26:34.292Z,15
2022-11-17T04:29:02.598Z,16
2022-11-17T04:31:30.838Z,14
2022-11-17T04:33:59.149Z,12
2022-11-17T04:36:27.388Z,10
2022-11-17T04:38:55.669Z,17
2022-11-17T04:41:23.915Z,16
2022-11-17T04:43:52.215Z,13
2022-11-17T04:46:20.453Z,15
2022-11-17T04:48:48.740Z,15
2022-11-17T04:52:31.186Z,16
2022-11-17T04:54:59.375Z,14
2022-11-17T04:58:41.786Z,13
2022-11-17T05:02:24.201Z,19
2022-11-17T05:04:52.465Z,15
2022-11-17T05:07:20.781Z,16
2022-11-17T05:09:48.995Z,16
2022-11-17T05:13:23.193Z,18
2022-11-17T05:15:51.496Z,18
2022-11-17T05:18:19.740Z,18
2022-11-17T05:22:02.151Z,17
2022-11-17T05:29:35.225Z,16
2022-11-17T06:10:46.098Z,20
2022-11-17T06:25:27.594Z,17
2022-11-17T06:51:32.573Z,17
2022-11-17T06:55:23.137Z,17
2022-11-17T06:57:53.521Z,18
2022-11-17T07:01:33.804Z,18
2022-11-17T07:04:02.047Z,20
2022-11-17T07:07:44.441Z,15
2022-11-17T07:33:33.119Z,17
2022-11-17T07:37:23.646Z,16
2022-11-17T07:39:51.945Z,15
2022-11-17T07:43:34.336Z,13
2022-11-17T07:46:02.576Z,15
2022-11-17T07:48:30.821Z,13
2022-11-17T07:50:59.137Z,17
2022-11-17T07:53:27.380Z,15
2022-11-17T07:58:23.963Z,16
2022-11-17T08:40:49.071Z,15
2022-11-17T09:09:30.517Z,15
2022-11-17T09:11:58.730Z,14
2022-11-17T09:14:27.005Z,16
2022-11-17T09:16:55.253Z,11
2022-11-17T09:19:23.554Z,14
2022-11-17T09:21:59.986Z,16
2022-11-17T09:24:36.455Z,14
2022-11-17T09:29:32.964Z,13
2022-11-17T09:32:01.230Z,11
2022-11-17T09:34:29.557Z,13
2022-11-17T09:36:57.759Z,7
2022-11-17T09:39:26.048Z,11
2022-11-17T09:41:54.299Z,9
2022-11-17T09:44:22.561Z,12
2022-11-17T09:46:50.850Z,11
2022-11-17T09:50:41.422Z,9
2022-11-17T09:54:23.929Z,6
2022-11-17T09:57:00.297Z,9
2022-11-17T09:59:36.732Z,12
2022-11-17T10:02:05.069Z,10
2022-11-17T10:04:33.287Z,13
2022-11-17T10:07:01.589Z,10
2022-11-17T10:09:29.834Z,11
2022-11-17T10:11:58.070Z,8
2022-11-17T10:14:26.330Z,9
2022-11-17T10:16:54.596Z,11
2022-11-17T10:46:52.152Z,10
2022-11-17T10:50:32.589Z,8
2022-11-17T10:53:00.881Z,10
2022-11-17T10:55:29.134Z,10
2022-11-17T10:57:57.403Z,9
2022-11-17T11:00:25.667Z,10
2022-11-17T11:02:53.939Z,10
2022-11-17T11:06:36.313Z,9
2022-11-17T11:09:04.611Z,12
2022-11-17T11:11:24.756Z,8
2022-11-17T11:13:52.930Z,9
2022-11-17T11:16:21.209Z,10
2022-11-17T11:18:49.450Z,15
2022-11-17T11:22:31.877Z,9
2022-11-17T11:27:28.407Z,11
2022-11-17T11:32:25.032Z,11
2022-11-17T12:00:58.294Z,15
2022-11-17T12:03:34.716Z,12
2022-11-17T12:06:02.926Z,10
2022-11-17T12:08:31.159Z,15
2022-11-17T12:13:19.545Z,11
2022-11-17T12:15:47.799Z,11
2022-11-17T12:29:39.727Z,14
2022-11-17T12:35:58.597Z,13
2022-11-17T12:39:49.161Z,10
2022-11-17T12:48:36.410Z,13
2022-11-17T12:52:26.902Z,9
2022-11-17T13:33:29.590Z,6
2022-11-17T13:35:57.873Z,7
2022-11-17T13:38:26.137Z,8
2022-11-17T13:40:54.391Z,7
2022-11-17T13:43:22.676Z,6
2022-11-17T13:45:50.901Z,7
2022-11-17T13:49:33.340Z,7
2022-11-17T13:52:01.629Z,8
2022-11-17T13:54:29.880Z,7
2022-11-17T13:56:58.155Z,5
2022-11-17T13:59:26.389Z,9
2022-11-17T14:01:54.672Z,5
2022-11-17T14:05:37.037Z,10
2022-11-17T14:08:05.362Z,10
2022-11-17T14:10:33.603Z,8
2022-11-17T14:12:53.703Z,6
2022-11-17T14:15:21.915Z,7
2022-11-17T14:42:41.131Z,9
2022-11-17T14:46:31.736Z,8
2022-11-17T14:50:22.232Z,7
2022-11-17T14:52:50.523Z,8
2022-11-17T14:56:32.926Z,7
2022-11-17T14:59:01.179Z,8
2022-11-17T15:01:29.426Z,15
2022-11-17T15:06:26.074Z,15
2022-11-17T15:18:39.223Z,15
2022-11-17T15:48:34.693Z,12
2022-11-17T15:51:02.955Z,14
2022-11-17T15:54:53.549Z,18
2022-11-17T15:57:30.029Z,16
2022-11-17T15:59:58.305Z,11
2022-11-17T16:02:26.583Z,13
2022-11-17T16:05:03.010Z,17
2022-11-17T16:07:39.589Z,20
2022-11-17T16:11:21.912Z,21
2022-11-17T16:13:58.308Z,19
2022-11-17T16:17:32.549Z,22
2022-11-17T16:20:00.821Z,20
2022-11-17T16:22:29.081Z,23
2022-11-17T16:25:05.536Z,22
2022-11-17T16:27:41.964Z,22
2022-11-17T16:31:24.382Z,18
2022-11-17T16:36:20.902Z,20
2022-11-17T16:39:00.195Z,22
2022-11-17T16:42:31.583Z,23
2022-11-17T16:47:28.219Z,27
2022-11-17T17:14:55.456Z,34
2022-11-17T17:17:23.679Z,31
2022-11-17T17:19:52.035Z,28
2022-11-17T17:24:48.522Z,39
2022-11-17T18:11:37.434Z,49
2022-11-17T18:37:42.457Z,54
2022-11-17T18:41:32.979Z,55
2022-11-17T18:44:09.430Z,54
2022-11-17T18:47:51.833Z,55
2022-11-17T18:51:34.217Z,57
2022-11-17T18:54:02.505Z,57
2022-11-17T19:16:25.194Z,58
2022-11-17T19:43:52.399Z,48
2022-11-17T19:46:20.665Z,54
2022-11-17T19:48:40.723Z,45
2022-11-17T19:53:37.279Z,59
2022-11-17T19:56:05.510Z,46
2022-11-17T20:03:46.784Z,41
2022-11-17T20:29:51.779Z,54
2022-11-17T20:33:42.330Z,64
2022-11-17T20:37:24.700Z,48
2022-11-17T20:39:52.978Z,50
2022-11-17T20:42:21.234Z,55
2022-11-17T20:44:49.626Z,48
2022-11-17T20:48:48.329Z,25
2022-11-17T20:53:53.049Z,23
2022-11-17T20:56:29.442Z,21
2022-11-17T20:58:57.769Z,22
2022-11-17T21:01:26.059Z,18
2022-11-17T21:04:02.479Z,20
2022-11-17T21:06:38.940Z,16
2022-11-17T21:10:21.346Z,15
2022-11-17T21:14:03.690Z,15
2022-11-17T21:16:40.177Z,13
2022-11-17T21:20:22.579Z,16
2022-11-17T21:24:04.972Z,15
2022-11-17T21:26:33.260Z,15
2022-11-17T21:29:06.121Z,18
2022-11-17T21:31:29.784Z,18
2022-11-17T21:33:58.047Z,23
2022-11-17T21:59:46.758Z,30
2022-11-17T22:03:37.258Z,27
2022-11-17T22:06:13.680Z,31
2022-11-17T22:08:41.984Z,29
2022-11-17T22:11:10.245Z,30
2022-11-17T22:13:38.537Z,30
2022-11-17T22:17:20.892Z,30
2022-11-17T22:19:49.206Z,29
2022-11-17T22:23:31.583Z,29
2022-11-17T23:00:52.086Z,23
2022-11-17T23:03:28.481Z,16
2022-11-17T23:05:56.683Z,19
2022-11-17T23:11:03.958Z,18
2022-11-17T23:13:21.527Z,18
2022-11-17T23:15:41.541Z,17
2022-11-17T23:19:23.990Z,18
2022-11-17T23:21:52.243Z,18
2022-11-17T23:24:20.531Z,20
2022-11-17T23:26:48.755Z,19
2022-11-17T23:30:39.340Z,17
2022-11-17T23:33:15.804Z,18
2022-11-17T23:35:44.080Z,21
2022-11-17T23:39:26.483Z,16
2022-11-17T23:44:23.014Z,22
